RV Helmer Hanssen — LAHV — position and weather

sailwx.info

Track history (hours):
 
Tides and Currents Weather Stations Pressure Air Temp Water Temp Dewpoint Dewpoint Depression Visibility Wind Speed Wind Dir Waves Ship Positions

Oceanographic research ship RV Helmer Hanssen (Norway)

ex Jan Mayen.

Ship's website: http://uit.no/bfe

Detailed information on ship capabilities available from University of Delaware's Ocean Information Center and ARCUS's ALIAS (Arctic Logistics Information and Support) project.

Last reported at 2020-Aug-05 22:29 UTC. Time now 2020-Aug-09 05:48 UTC.
Position N 66°30' E 008°57'.

Length 64 m; beam 13 m.

Type: Other ship. MMSI: 257471500.

Date/timePositionNaut miles runAvg speedWind from/ knotsBaromVisibWave heightAir tempDewpointWater temp
2020-Aug-05 22:29N 66°30' E 008°57'2911.5
2020-Aug-05 20:00N 66°47' E 009°55'611.6
2020-Aug-05 19:30N 66°51' E 010°06'2411.7
2020-Aug-05 17:29N 67°05' E 010°55'4111.8
2020-Aug-05 14:00N 67°29' E 012°21'1111.5
2020-Aug-05 13:00N 67°35' E 012°47'611.4
2020-Aug-05 12:30N 67°38' E 012°60'3210.5
2020-Aug-05 09:30N 67°54' E 014°11'3411.3
2020-Aug-05 06:30N 68°12' E 015°28'2311.3
2020-Aug-05 04:30N 68°29' E 016°07'4210.6
2020-Aug-05 00:30N 69°03' E 017°19'19 9.4
2020-Aug-04 22:30N 69°15' E 017°59'1610.3
2020-Aug-04 20:59N 69°30' E 018°15'1110.9
2020-Aug-04 20:00N 69°33' E 018°44'8 2.6
2020-Aug-04 16:59N 69°39' E 018°58'0 0.0
2020-Aug-04 10:58N 69°39' E 018°58'0 0.0
2020-Aug-04 09:28N 69°39' E 018°58'0 0.0
2020-Aug-04 08:58N 69°39' E 018°58'0 0.0
2020-Aug-04 08:28N 69°39' E 018°58'0 0.0
2020-Aug-04 04:58N 69°39' E 018°58'0 0.0
2020-Aug-04 03:58N 69°39' E 018°58'0 0.0
2020-Aug-04 02:58N 69°39' E 018°58'0 0.0
2020-Aug-03 22:28N 69°39' E 018°58'0 0.0
2020-Aug-03 17:28N 69°39' E 018°58'0 0.0
2020-Aug-03 16:25N 69°39' E 018°58'0 0.0
2020-Aug-03 15:28N 69°39' E 018°58'0 0.0
2020-Aug-03 12:58N 69°39' E 018°58'0 0.0
2020-Aug-03 10:58N 69°39' E 018°58'0 0.0
2020-Aug-03 09:58N 69°39' E 018°58'0 0.0
2020-Aug-03 09:28N 69°39' E 018°58'0 0.0
2020-Aug-03 08:58N 69°39' E 018°58'0 0.0
2020-Aug-03 06:58N 69°39' E 018°58'0 0.0
2020-Aug-03 05:28N 69°39' E 018°58'3 2.7
2020-Aug-03 04:31N 69°42' E 019°02'4 4.1
2020-Aug-03 03:30N 69°46' E 019°04'16 4.5
2020-Aug-03 00:00N 69°56' E 018°30'40 6.1
2020-Aug-02 17:30N 70°32' E 017°37'6 6.2
2020-Aug-02 16:30N 70°38' E 017°30'17 5.6
2020-Aug-02 13:30N 70°53' E 017°11'1 2.4
2020-Aug-02 13:00N 70°54' E 017°09'3 7.0
2020-Aug-02 12:30N 70°57' E 017°04'1 0.7
2020-Aug-02 10:31N 70°59' E 017°06'2 3.5
2020-Aug-02 10:00N 70°57' E 017°06'2 0.5
2020-Aug-02 06:30N 70°59' E 017°05'4 2.8
2020-Aug-02 05:01N 70°54' E 017°07'2 3.1
2020-Aug-02 04:30N 70°56' E 017°05'2 4.8
2020-Aug-02 04:00N 70°54' E 017°09'3 2.6
2020-Aug-02 03:01N 70°56' E 017°05'3 3.2
2020-Aug-02 02:01N 70°53' E 017°11'3 2.6
2020-Aug-02 01:00N 70°56' E 017°08'5 1.9
2020-Aug-01 22:30N 70°60' E 016°59'4 0.6
2020-Aug-01 15:58N 71°04' E 016°57'2 1.1
2020-Aug-01 14:00N 71°06' E 016°56'7 2.6
2020-Aug-01 11:16N 70°60' E 017°03'9 5.1
2020-Aug-01 09:29N 71°08' E 016°55'5 1.0
2020-Aug-01 05:06N 71°04' E 017°01'12 5.6
2020-Aug-01 03:00N 71°15' E 016°47'811.2
2020-Aug-01 02:15N 71°23' E 016°39'  
2020-Jul-29 21:00N 72°02' E 021°43'610.9
2020-Jul-29 20:30N 72°01' E 022°01'6 5.5
2020-Jul-29 19:30N 72°00' E 022°18'2 0.9
2020-Jul-29 17:00N 72°01' E 022°11'0 0.6
2020-Jul-29 16:30N 72°01' E 022°10'1 1.2
2020-Jul-29 15:30N 72°02' E 022°13'2 1.8
2020-Jul-29 14:30N 72°02' E 022°08'2 0.3
2020-Jul-29 09:30N 72°01' E 022°12'4 0.9
2020-Jul-29 04:59N 72°03' E 022°00'3 1.4
2020-Jul-29 02:52N 72°04' E 022°09'5 2.8
2020-Jul-29 01:00N 71°60' E 022°20'5 3.2
2020-Jul-28 23:30N 72°03' E 022°08'35 8.8
2020-Jul-28 19:30N 71°29' E 021°41'2811.3
2020-Jul-28 17:01N 71°02' E 021°13'2311.6
2020-Jul-28 15:01N 70°40' E 020°50'2010.1
2020-Jul-28 13:00N 70°21' E 020°30'11 7.4
2020-Jul-28 11:30N 70°10' E 020°19'2 4.8
2020-Jul-28 11:01N 70°08' E 020°17'611.2
2020-Jul-28 10:30N 70°03' E 020°09'1111.0
2020-Jul-28 09:30N 69°54' E 019°53'24 7.8
2020-Jul-28 06:30N 69°39' E 018°58'0 0.0
2020-Jul-28 05:30N 69°39' E 018°58'0 0.0
2020-Jul-28 01:31N 69°39' E 018°58'0 0.0
2020-Jul-27 23:00N 69°39' E 018°58'0 0.0
2020-Jul-27 19:00N 69°39' E 018°58'0 0.0
2020-Jul-27 17:30N 69°39' E 018°58'0 0.0
2020-Jul-27 17:00N 69°39' E 018°58'0 0.0
2020-Jul-27 16:29N 69°39' E 018°58'0 0.0
2020-Jul-27 16:00N 69°39' E 018°58'0 0.0
2020-Jul-27 15:31N 69°39' E 018°58'0 0.0
2020-Jul-27 15:00N 69°39' E 018°58'0 0.0
2020-Jul-27 14:30N 69°39' E 018°58'0 0.0
2020-Jul-27 12:00N 69°39' E 018°58'0 0.0
2020-Jul-27 10:00N 69°39' E 018°58'0 0.0
2020-Jul-27 09:30N 69°39' E 018°58'0 0.0
2020-Jul-27 08:00N 69°39' E 018°58'0 0.0
2020-Jul-27 06:30N 69°39' E 018°58'0 0.0
2020-Jul-27 05:31N 69°39' E 018°58'0 0.0
2020-Jul-27 04:30N 69°39' E 018°58'0 0.0
2020-Jul-27 03:30N 69°39' E 018°58'0 0.0
2020-Jul-27 03:00N 69°39' E 018°58'0 0.0
2020-Jul-27 02:30N 69°39' E 018°58'0 0.0
2020-Jul-27 02:00N 69°39' E 018°58'0 0.0
2020-Jul-27 01:00N 69°39' E 018°58'  
Track history (hours):
 
Tides and Currents Weather Stations Pressure Air Temp Water Temp Dewpoint Dewpoint Depression Visibility Wind Speed Wind Dir Waves Ship Positions

Oceanographic research ship RV Helmer Hanssen (Norway)

ex Jan Mayen.

Ship's website: http://uit.no/bfe

Detailed information on ship capabilities available from University of Delaware's Ocean Information Center and ARCUS's ALIAS (Arctic Logistics Information and Support) project.

Last reported at 2020-Aug-05 22:29 UTC. Time now 2020-Aug-09 05:48 UTC.
Position N 66°30' E 008°57'.

Length 64 m; beam 13 m.

Type: Other ship. MMSI: 257471500.

Date/timePositionNaut miles runAvg speedWind from/ knotsBaromVisibWave heightAir tempDewpointWater temp
2020-Aug-05 22:29N 66°30' E 008°57'2911.5
2020-Aug-05 20:00N 66°47' E 009°55'611.6
2020-Aug-05 19:30N 66°51' E 010°06'2411.7
2020-Aug-05 17:29N 67°05' E 010°55'4111.8
2020-Aug-05 14:00N 67°29' E 012°21'1111.5
2020-Aug-05 13:00N 67°35' E 012°47'611.4
2020-Aug-05 12:30N 67°38' E 012°60'3210.5
2020-Aug-05 09:30N 67°54' E 014°11'3411.3
2020-Aug-05 06:30N 68°12' E 015°28'2311.3
2020-Aug-05 04:30N 68°29' E 016°07'4210.6
2020-Aug-05 00:30N 69°03' E 017°19'19 9.4
2020-Aug-04 22:30N 69°15' E 017°59'1610.3
2020-Aug-04 20:59N 69°30' E 018°15'1110.9
2020-Aug-04 20:00N 69°33' E 018°44'8 2.6
2020-Aug-04 16:59N 69°39' E 018°58'0 0.0
2020-Aug-04 10:58N 69°39' E 018°58'0 0.0
2020-Aug-04 09:28N 69°39' E 018°58'0 0.0
2020-Aug-04 08:58N 69°39' E 018°58'0 0.0
2020-Aug-04 08:28N 69°39' E 018°58'0 0.0
2020-Aug-04 04:58N 69°39' E 018°58'0 0.0
2020-Aug-04 03:58N 69°39' E 018°58'0 0.0
2020-Aug-04 02:58N 69°39' E 018°58'0 0.0
2020-Aug-03 22:28N 69°39' E 018°58'0 0.0
2020-Aug-03 17:28N 69°39' E 018°58'0 0.0
2020-Aug-03 16:25N 69°39' E 018°58'0 0.0
2020-Aug-03 15:28N 69°39' E 018°58'0 0.0
2020-Aug-03 12:58N 69°39' E 018°58'0 0.0
2020-Aug-03 10:58N 69°39' E 018°58'0 0.0
2020-Aug-03 09:58N 69°39' E 018°58'0 0.0
2020-Aug-03 09:28N 69°39' E 018°58'0 0.0
2020-Aug-03 08:58N 69°39' E 018°58'0 0.0
2020-Aug-03 06:58N 69°39' E 018°58'0 0.0
2020-Aug-03 05:28N 69°39' E 018°58'3 2.7
2020-Aug-03 04:31N 69°42' E 019°02'4 4.1
2020-Aug-03 03:30N 69°46' E 019°04'16 4.5
2020-Aug-03 00:00N 69°56' E 018°30'40 6.1
2020-Aug-02 17:30N 70°32' E 017°37'6 6.2
2020-Aug-02 16:30N 70°38' E 017°30'17 5.6
2020-Aug-02 13:30N 70°53' E 017°11'1 2.4
2020-Aug-02 13:00N 70°54' E 017°09'3 7.0
2020-Aug-02 12:30N 70°57' E 017°04'1 0.7
2020-Aug-02 10:31N 70°59' E 017°06'2 3.5
2020-Aug-02 10:00N 70°57' E 017°06'2 0.5
2020-Aug-02 06:30N 70°59' E 017°05'4 2.8
2020-Aug-02 05:01N 70°54' E 017°07'2 3.1
2020-Aug-02 04:30N 70°56' E 017°05'2 4.8
2020-Aug-02 04:00N 70°54' E 017°09'3 2.6
2020-Aug-02 03:01N 70°56' E 017°05'3 3.2
2020-Aug-02 02:01N 70°53' E 017°11'3 2.6
2020-Aug-02 01:00N 70°56' E 017°08'5 1.9
2020-Aug-01 22:30N 70°60' E 016°59'4 0.6
2020-Aug-01 15:58N 71°04' E 016°57'2 1.1
2020-Aug-01 14:00N 71°06' E 016°56'7 2.6
2020-Aug-01 11:16N 70°60' E 017°03'9 5.1
2020-Aug-01 09:29N 71°08' E 016°55'5 1.0
2020-Aug-01 05:06N 71°04' E 017°01'12 5.6
2020-Aug-01 03:00N 71°15' E 016°47'811.2
2020-Aug-01 02:15N 71°23' E 016°39'  
2020-Jul-29 21:00N 72°02' E 021°43'610.9
2020-Jul-29 20:30N 72°01' E 022°01'6 5.5
2020-Jul-29 19:30N 72°00' E 022°18'2 0.9
2020-Jul-29 17:00N 72°01' E 022°11'0 0.6
2020-Jul-29 16:30N 72°01' E 022°10'1 1.2
2020-Jul-29 15:30N 72°02' E 022°13'2 1.8
2020-Jul-29 14:30N 72°02' E 022°08'2 0.3
2020-Jul-29 09:30N 72°01' E 022°12'4 0.9
2020-Jul-29 04:59N 72°03' E 022°00'3 1.4
2020-Jul-29 02:52N 72°04' E 022°09'5 2.8
2020-Jul-29 01:00N 71°60' E 022°20'5 3.2
2020-Jul-28 23:30N 72°03' E 022°08'35 8.8
2020-Jul-28 19:30N 71°29' E 021°41'2811.3
2020-Jul-28 17:01N 71°02' E 021°13'2311.6
2020-Jul-28 15:01N 70°40' E 020°50'2010.1
2020-Jul-28 13:00N 70°21' E 020°30'11 7.4
2020-Jul-28 11:30N 70°10' E 020°19'2 4.8
2020-Jul-28 11:01N 70°08' E 020°17'611.2
2020-Jul-28 10:30N 70°03' E 020°09'1111.0
2020-Jul-28 09:30N 69°54' E 019°53'24 7.8
2020-Jul-28 06:30N 69°39' E 018°58'0 0.0
2020-Jul-28 05:30N 69°39' E 018°58'0 0.0
2020-Jul-28 01:31N 69°39' E 018°58'0 0.0
2020-Jul-27 23:00N 69°39' E 018°58'0 0.0
2020-Jul-27 19:00N 69°39' E 018°58'0 0.0
2020-Jul-27 17:30N 69°39' E 018°58'0 0.0
2020-Jul-27 17:00N 69°39' E 018°58'0 0.0
2020-Jul-27 16:29N 69°39' E 018°58'0 0.0
2020-Jul-27 16:00N 69°39' E 018°58'0 0.0
2020-Jul-27 15:31N 69°39' E 018°58'0 0.0
2020-Jul-27 15:00N 69°39' E 018°58'0 0.0
2020-Jul-27 14:30N 69°39' E 018°58'0 0.0
2020-Jul-27 12:00N 69°39' E 018°58'0 0.0
2020-Jul-27 10:00N 69°39' E 018°58'0 0.0
2020-Jul-27 09:30N 69°39' E 018°58'0 0.0
2020-Jul-27 08:00N 69°39' E 018°58'0 0.0
2020-Jul-27 06:30N 69°39' E 018°58'0 0.0
2020-Jul-27 05:31N 69°39' E 018°58'0 0.0
2020-Jul-27 04:30N 69°39' E 018°58'0 0.0
2020-Jul-27 03:30N 69°39' E 018°58'0 0.0
2020-Jul-27 03:00N 69°39' E 018°58'0 0.0
2020-Jul-27 02:30N 69°39' E 018°58'0 0.0
2020-Jul-27 02:00N 69°39' E 018°58'0 0.0
2020-Jul-27 01:00N 69°39' E 018°58'  

Dump ship's entire track history